sensor_id;sensor_type;location;lat;lon;timestamp;P1;durP1;ratioP1;P2;durP2;ratioP2
15699;SDS011;7950;42.744;23.174;2022-08-04T00:00:02;5.63;;;3.80;;
15699;SDS011;7950;42.744;23.174;2022-08-04T00:02:40;4.27;;;3.87;;
15699;SDS011;7950;42.744;23.174;2022-08-04T00:05:33;4.77;;;4.07;;
15699;SDS011;7950;42.744;23.174;2022-08-04T00:08:21;6.37;;;3.70;;
15699;SDS011;7950;42.744;23.174;2022-08-04T00:11:02;5.03;;;4.63;;
15699;SDS011;7950;42.744;23.174;2022-08-04T00:13:41;4.07;;;3.67;;
15699;SDS011;7950;42.744;23.174;2022-08-04T00:16:32;4.33;;;4.00;;
15699;SDS011;7950;42.744;23.174;2022-08-04T00:19:06;4.13;;;3.83;;
15699;SDS011;7950;42.744;23.174;2022-08-04T00:21:45;4.20;;;3.60;;
15699;SDS011;7950;42.744;23.174;2022-08-04T00:24:21;5.20;;;4.00;;
15699;SDS011;7950;42.744;23.174;2022-08-04T00:26:55;4.10;;;3.80;;
15699;SDS011;7950;42.744;23.174;2022-08-04T00:29:26;4.67;;;4.00;;
15699;SDS011;7950;42.744;23.174;2022-08-04T00:31:55;4.23;;;3.93;;
15699;SDS011;7950;42.744;23.174;2022-08-04T00:34:26;4.53;;;4.03;;
15699;SDS011;7950;42.744;23.174;2022-08-04T00:36:56;4.77;;;3.73;;
15699;SDS011;7950;42.744;23.174;2022-08-04T00:39:25;5.27;;;3.63;;
15699;SDS011;7950;42.744;23.174;2022-08-04T00:42:19;4.47;;;3.67;;
15699;SDS011;7950;42.744;23.174;2022-08-04T00:46:01;3.80;;;3.50;;
15699;SDS011;7950;42.744;23.174;2022-08-04T00:49:20;4.30;;;3.90;;
15699;SDS011;7950;42.744;23.174;2022-08-04T00:52:35;4.07;;;3.70;;
15699;SDS011;7950;42.744;23.174;2022-08-04T00:55:30;5.27;;;4.00;;
15699;SDS011;7950;42.744;23.174;2022-08-04T00:58:22;4.47;;;3.63;;
15699;SDS011;7950;42.744;23.174;2022-08-04T01:01:07;5.23;;;3.80;;
15699;SDS011;7950;42.744;23.174;2022-08-04T01:03:55;5.00;;;3.80;;
15699;SDS011;7950;42.744;23.174;2022-08-04T01:06:36;4.00;;;3.60;;
15699;SDS011;7950;42.744;23.174;2022-08-04T01:09:25;4.23;;;3.90;;
15699;SDS011;7950;42.744;23.174;2022-08-04T01:12:25;5.03;;;3.97;;
15699;SDS011;7950;42.744;23.174;2022-08-04T01:15:44;5.03;;;3.90;;
15699;SDS011;7950;42.744;23.174;2022-08-04T01:21:50;4.23;;;3.83;;
15699;SDS011;7950;42.744;23.174;2022-08-04T01:24:54;4.53;;;4.13;;
15699;SDS011;7950;42.744;23.174;2022-08-04T01:28:13;5.00;;;3.97;;
15699;SDS011;7950;42.744;23.174;2022-08-04T01:31:00;6.23;;;4.30;;
15699;SDS011;7950;42.744;23.174;2022-08-04T01:33:38;4.33;;;3.93;;
15699;SDS011;7950;42.744;23.174;2022-08-04T01:36:30;4.77;;;4.37;;
15699;SDS011;7950;42.744;23.174;2022-08-04T01:39:02;5.37;;;4.13;;
15699;SDS011;7950;42.744;23.174;2022-08-04T01:41:51;6.77;;;4.10;;
15699;SDS011;7950;42.744;23.174;2022-08-04T01:44:24;4.67;;;4.00;;
15699;SDS011;7950;42.744;23.174;2022-08-04T01:46:56;6.17;;;4.30;;
15699;SDS011;7950;42.744;23.174;2022-08-04T01:49:28;4.70;;;4.30;;
15699;SDS011;7950;42.744;23.174;2022-08-04T01:52:09;4.80;;;4.40;;
15699;SDS011;7950;42.744;23.174;2022-08-04T01:54:38;4.83;;;4.43;;
15699;SDS011;7950;42.744;23.174;2022-08-04T01:57:09;4.53;;;4.20;;
15699;SDS011;7950;42.744;23.174;2022-08-04T01:59:58;8.07;;;4.40;;
15699;SDS011;7950;42.744;23.174;2022-08-04T02:02:33;5.13;;;4.60;;
15699;SDS011;7950;42.744;23.174;2022-08-04T02:05:01;4.97;;;4.47;;
15699;SDS011;7950;42.744;23.174;2022-08-04T02:07:34;6.77;;;4.43;;
15699;SDS011;7950;42.744;23.174;2022-08-04T02:10:34;4.40;;;4.00;;
15699;SDS011;7950;42.744;23.174;2022-08-04T02:16:30;4.60;;;4.03;;
15699;SDS011;7950;42.744;23.174;2022-08-04T02:19:21;5.03;;;4.60;;
15699;SDS011;7950;42.744;23.174;2022-08-04T02:22:01;6.07;;;4.23;;
15699;SDS011;7950;42.744;23.174;2022-08-04T02:24:45;5.37;;;4.93;;
15699;SDS011;7950;42.744;23.174;2022-08-04T02:27:18;5.47;;;5.00;;
15699;SDS011;7950;42.744;23.174;2022-08-04T02:30:27;5.13;;;4.73;;
15699;SDS011;7950;42.744;23.174;2022-08-04T02:33:03;4.80;;;4.40;;
15699;SDS011;7950;42.744;23.174;2022-08-04T02:35:37;5.63;;;4.50;;
15699;SDS011;7950;42.744;23.174;2022-08-04T02:38:11;4.83;;;4.33;;
15699;SDS011;7950;42.744;23.174;2022-08-04T02:40:51;5.53;;;4.83;;
15699;SDS011;7950;42.744;23.174;2022-08-04T02:43:25;4.87;;;4.17;;
15699;SDS011;7950;42.744;23.174;2022-08-04T02:46:17;4.93;;;4.53;;
15699;SDS011;7950;42.744;23.174;2022-08-04T02:48:47;5.20;;;4.70;;
15699;SDS011;7950;42.744;23.174;2022-08-04T02:51:22;5.53;;;4.67;;
15699;SDS011;7950;42.744;23.174;2022-08-04T02:53:55;5.20;;;4.80;;
15699;SDS011;7950;42.744;23.174;2022-08-04T02:56:27;5.63;;;5.13;;
15699;SDS011;7950;42.744;23.174;2022-08-04T02:58:59;6.20;;;4.73;;
15699;SDS011;7950;42.744;23.174;2022-08-04T03:01:30;4.90;;;4.50;;
15699;SDS011;7950;42.744;23.174;2022-08-04T03:04:03;4.70;;;4.30;;
15699;SDS011;7950;42.744;23.174;2022-08-04T03:10:29;5.87;;;5.30;;
15699;SDS011;7950;42.744;23.174;2022-08-04T03:19:55;6.00;;;5.30;;
15699;SDS011;7950;42.744;23.174;2022-08-04T03:23:13;7.07;;;5.37;;
15699;SDS011;7950;42.744;23.174;2022-08-04T03:40:07;6.37;;;5.60;;
15699;SDS011;7950;42.744;23.174;2022-08-04T04:02:45;5.87;;;5.27;;
15699;SDS011;7950;42.744;23.174;2022-08-04T04:09:23;6.57;;;5.63;;
15699;SDS011;7950;42.744;23.174;2022-08-04T04:12:36;6.40;;;5.77;;
15699;SDS011;7950;42.744;23.174;2022-08-04T04:22:16;6.23;;;5.63;;
15699;SDS011;7950;42.744;23.174;2022-08-04T04:25:10;6.20;;;5.60;;
15699;SDS011;7950;42.744;23.174;2022-08-04T04:28:04;6.30;;;5.80;;
15699;SDS011;7950;42.744;23.174;2022-08-04T04:31:18;6.07;;;5.50;;
15699;SDS011;7950;42.744;23.174;2022-08-04T04:34:15;6.60;;;5.87;;
15699;SDS011;7950;42.744;23.174;2022-08-04T04:37:13;5.77;;;5.27;;
15699;SDS011;7950;42.744;23.174;2022-08-04T04:40:02;7.47;;;5.63;;
15699;SDS011;7950;42.744;23.174;2022-08-04T04:42:54;7.23;;;6.47;;
15699;SDS011;7950;42.744;23.174;2022-08-04T04:46:10;7.40;;;6.07;;
15699;SDS011;7950;42.744;23.174;2022-08-04T04:48:59;7.83;;;5.90;;
15699;SDS011;7950;42.744;23.174;2022-08-04T04:51:41;5.43;;;5.00;;
15699;SDS011;7950;42.744;23.174;2022-08-04T04:54:23;7.13;;;6.43;;
15699;SDS011;7950;42.744;23.174;2022-08-04T04:57:03;5.47;;;4.97;;
15699;SDS011;7950;42.744;23.174;2022-08-04T04:59:43;7.33;;;6.20;;
15699;SDS011;7950;42.744;23.174;2022-08-04T05:02:27;7.90;;;5.97;;
15699;SDS011;7950;42.744;23.174;2022-08-04T05:05:38;6.97;;;5.47;;
15699;SDS011;7950;42.744;23.174;2022-08-04T05:08:34;7.83;;;6.30;;
15699;SDS011;7950;42.744;23.174;2022-08-04T05:11:52;6.70;;;6.10;;
15699;SDS011;7950;42.744;23.174;2022-08-04T05:15:09;6.47;;;5.83;;
15699;SDS011;7950;42.744;23.174;2022-08-04T05:17:41;6.43;;;5.73;;
15699;SDS011;7950;42.744;23.174;2022-08-04T05:20:19;6.60;;;6.00;;
15699;SDS011;7950;42.744;23.174;2022-08-04T05:22:54;8.13;;;6.30;;
15699;SDS011;7950;42.744;23.174;2022-08-04T05:25:30;6.70;;;5.97;;
15699;SDS011;7950;42.744;23.174;2022-08-04T05:28:06;10.47;;;6.90;;
15699;SDS011;7950;42.744;23.174;2022-08-04T05:30:53;9.43;;;7.20;;
15699;SDS011;7950;42.744;23.174;2022-08-04T05:33:31;8.90;;;6.77;;
15699;SDS011;7950;42.744;23.174;2022-08-04T05:36:09;10.67;;;6.97;;
15699;SDS011;7950;42.744;23.174;2022-08-04T05:39:05;7.23;;;6.53;;
15699;SDS011;7950;42.744;23.174;2022-08-04T05:42:05;7.77;;;7.07;;
15699;SDS011;7950;42.744;23.174;2022-08-04T05:44:37;8.13;;;6.37;;
15699;SDS011;7950;42.744;23.174;2022-08-04T05:47:15;7.10;;;6.40;;
15699;SDS011;7950;42.744;23.174;2022-08-04T05:49:48;7.53;;;6.63;;
15699;SDS011;7950;42.744;23.174;2022-08-04T05:52:27;8.57;;;7.70;;
15699;SDS011;7950;42.744;23.174;2022-08-04T05:54:58;8.07;;;7.20;;
15699;SDS011;7950;42.744;23.174;2022-08-04T06:00:23;7.07;;;6.37;;
15699;SDS011;7950;42.744;23.174;2022-08-04T06:03:06;6.47;;;5.83;;
15699;SDS011;7950;42.744;23.174;2022-08-04T06:05:44;6.83;;;6.23;;
15699;SDS011;7950;42.744;23.174;2022-08-04T06:08:14;8.03;;;6.40;;
15699;SDS011;7950;42.744;23.174;2022-08-04T06:10:43;9.53;;;7.70;;
15699;SDS011;7950;42.744;23.174;2022-08-04T06:13:17;7.83;;;7.13;;
15699;SDS011;7950;42.744;23.174;2022-08-04T06:16:16;15.87;;;8.20;;
15699;SDS011;7950;42.744;23.174;2022-08-04T06:18:57;9.37;;;8.47;;
15699;SDS011;7950;42.744;23.174;2022-08-04T06:21:52;8.43;;;7.63;;
15699;SDS011;7950;42.744;23.174;2022-08-04T06:24:25;8.30;;;7.60;;
15699;SDS011;7950;42.744;23.174;2022-08-04T06:26:56;9.10;;;8.30;;
15699;SDS011;7950;42.744;23.174;2022-08-04T06:29:26;9.37;;;8.37;;
15699;SDS011;7950;42.744;23.174;2022-08-04T06:32:01;10.67;;;8.93;;
15699;SDS011;7950;42.744;23.174;2022-08-04T06:34:58;10.63;;;9.40;;
15699;SDS011;7950;42.744;23.174;2022-08-04T06:37:30;8.77;;;7.87;;
15699;SDS011;7950;42.744;23.174;2022-08-04T06:40:09;9.37;;;8.47;;
15699;SDS011;7950;42.744;23.174;2022-08-04T06:42:57;14.37;;;7.60;;
15699;SDS011;7950;42.744;23.174;2022-08-04T06:45:28;7.73;;;7.03;;
15699;SDS011;7950;42.744;23.174;2022-08-04T06:50:35;7.77;;;6.97;;
15699;SDS011;7950;42.744;23.174;2022-08-04T06:53:27;11.13;;;7.23;;
15699;SDS011;7950;42.744;23.174;2022-08-04T06:55:56;9.20;;;7.60;;
15699;SDS011;7950;42.744;23.174;2022-08-04T06:58:29;8.43;;;7.20;;
15699;SDS011;7950;42.744;23.174;2022-08-04T07:00:59;9.57;;;7.00;;
15699;SDS011;7950;42.744;23.174;2022-08-04T07:03:30;7.83;;;7.10;;
15699;SDS011;7950;42.744;23.174;2022-08-04T07:05:59;10.67;;;7.57;;
15699;SDS011;7950;42.744;23.174;2022-08-04T07:08:33;8.00;;;6.97;;
15699;SDS011;7950;42.744;23.174;2022-08-04T07:11:03;7.33;;;6.63;;
15699;SDS011;7950;42.744;23.174;2022-08-04T07:13:32;8.40;;;6.43;;
15699;SDS011;7950;42.744;23.174;2022-08-04T07:16:08;7.03;;;6.33;;
15699;SDS011;7950;42.744;23.174;2022-08-04T07:18:41;7.10;;;6.47;;
15699;SDS011;7950;42.744;23.174;2022-08-04T07:21:10;7.97;;;7.27;;
15699;SDS011;7950;42.744;23.174;2022-08-04T07:23:50;6.33;;;5.80;;
15699;SDS011;7950;42.744;23.174;2022-08-04T07:26:19;7.37;;;5.13;;
15699;SDS011;7950;42.744;23.174;2022-08-04T07:28:53;6.40;;;5.80;;
15699;SDS011;7950;42.744;23.174;2022-08-04T07:31:25;6.50;;;5.90;;
15699;SDS011;7950;42.744;23.174;2022-08-04T07:34:01;5.90;;;5.00;;
15699;SDS011;7950;42.744;23.174;2022-08-04T07:36:45;5.90;;;5.40;;
15699;SDS011;7950;42.744;23.174;2022-08-04T07:39:20;7.63;;;5.80;;
15699;SDS011;7950;42.744;23.174;2022-08-04T07:41:54;5.40;;;4.90;;
15699;SDS011;7950;42.744;23.174;2022-08-04T07:44:30;6.53;;;5.13;;
15699;SDS011;7950;42.744;23.174;2022-08-04T07:47:01;5.40;;;4.80;;
15699;SDS011;7950;42.744;23.174;2022-08-04T07:50:06;5.57;;;5.07;;
15699;SDS011;7950;42.744;23.174;2022-08-04T07:52:37;7.33;;;4.73;;
15699;SDS011;7950;42.744;23.174;2022-08-04T07:55:08;5.30;;;4.80;;
15699;SDS011;7950;42.744;23.174;2022-08-04T07:57:37;5.60;;;5.13;;
15699;SDS011;7950;42.744;23.174;2022-08-04T08:00:08;5.03;;;4.53;;
15699;SDS011;7950;42.744;23.174;2022-08-04T08:02:41;5.10;;;4.70;;
15699;SDS011;7950;42.744;23.174;2022-08-04T08:05:15;5.77;;;5.27;;
15699;SDS011;7950;42.744;23.174;2022-08-04T08:07:46;5.40;;;4.90;;
15699;SDS011;7950;42.744;23.174;2022-08-04T08:10:21;5.33;;;4.70;;
15699;SDS011;7950;42.744;23.174;2022-08-04T08:12:51;6.57;;;4.90;;
15699;SDS011;7950;42.744;23.174;2022-08-04T08:15:21;6.80;;;6.10;;
15699;SDS011;7950;42.744;23.174;2022-08-04T08:17:50;7.37;;;6.33;;
15699;SDS011;7950;42.744;23.174;2022-08-04T08:20:25;5.50;;;5.00;;
15699;SDS011;7950;42.744;23.174;2022-08-04T08:22:57;4.90;;;4.53;;
15699;SDS011;7950;42.744;23.174;2022-08-04T08:25:30;7.10;;;4.43;;
15699;SDS011;7950;42.744;23.174;2022-08-04T08:28:03;5.83;;;5.33;;
15699;SDS011;7950;42.744;23.174;2022-08-04T08:33:32;9.10;;;5.00;;
15699;SDS011;7950;42.744;23.174;2022-08-04T08:36:02;4.63;;;4.23;;
15699;SDS011;7950;42.744;23.174;2022-08-04T08:38:45;6.27;;;4.93;;
15699;SDS011;7950;42.744;23.174;2022-08-04T08:48:36;8.83;;;4.63;;
15699;SDS011;7950;42.744;23.174;2022-08-04T08:51:28;6.57;;;4.70;;
15699;SDS011;7950;42.744;23.174;2022-08-04T08:54:21;8.43;;;4.90;;
15699;SDS011;7950;42.744;23.174;2022-08-04T08:57:30;8.40;;;4.83;;
15699;SDS011;7950;42.744;23.174;2022-08-04T09:00:27;5.10;;;4.60;;
15699;SDS011;7950;42.744;23.174;2022-08-04T09:03:26;5.43;;;4.93;;
15699;SDS011;7950;42.744;23.174;2022-08-04T09:06:22;6.63;;;4.27;;
15699;SDS011;7950;42.744;23.174;2022-08-04T09:12:32;6.03;;;4.50;;
15699;SDS011;7950;42.744;23.174;2022-08-04T09:15:12;6.03;;;4.50;;
15699;SDS011;7950;42.744;23.174;2022-08-04T09:17:49;5.67;;;4.20;;
15699;SDS011;7950;42.744;23.174;2022-08-04T09:20:28;4.63;;;3.77;;
15699;SDS011;7950;42.744;23.174;2022-08-04T09:23:12;4.50;;;4.10;;
15699;SDS011;7950;42.744;23.174;2022-08-04T09:25:51;3.90;;;3.50;;
15699;SDS011;7950;42.744;23.174;2022-08-04T09:28:28;3.88;;;3.58;;
15699;SDS011;7950;42.744;23.174;2022-08-04T09:31:21;13.10;;;4.37;;
15699;SDS011;7950;42.744;23.174;2022-08-04T09:34:19;8.20;;;3.90;;
15699;SDS011;7950;42.744;23.174;2022-08-04T09:37:03;3.72;;;3.42;;
15699;SDS011;7950;42.744;23.174;2022-08-04T09:39:45;3.80;;;3.50;;
15699;SDS011;7950;42.744;23.174;2022-08-04T09:42:34;3.92;;;3.50;;
15699;SDS011;7950;42.744;23.174;2022-08-04T09:45:18;3.73;;;3.40;;
15699;SDS011;7950;42.744;23.174;2022-08-04T09:48:10;4.10;;;3.55;;
15699;SDS011;7950;42.744;23.174;2022-08-04T09:50:52;4.20;;;3.90;;
15699;SDS011;7950;42.744;23.174;2022-08-04T09:53:34;3.88;;;3.30;;
15699;SDS011;7950;42.744;23.174;2022-08-04T09:56:18;3.53;;;3.20;;
15699;SDS011;7950;42.744;23.174;2022-08-04T09:58:57;2.80;;;2.60;;
15699;SDS011;7950;42.744;23.174;2022-08-04T10:01:44;3.20;;;2.90;;
15699;SDS011;7950;42.744;23.174;2022-08-04T10:04:26;3.20;;;3.00;;
15699;SDS011;7950;42.744;23.174;2022-08-04T10:07:12;3.70;;;3.40;;
15699;SDS011;7950;42.744;23.174;2022-08-04T10:13:20;3.80;;;3.38;;
15699;SDS011;7950;42.744;23.174;2022-08-04T10:19:19;4.35;;;3.20;;
15699;SDS011;7950;42.744;23.174;2022-08-04T10:22:05;4.32;;;3.42;;
15699;SDS011;7950;42.744;23.174;2022-08-04T10:25:02;3.17;;;2.88;;
15699;SDS011;7950;42.744;23.174;2022-08-04T10:28:04;2.72;;;2.53;;
15699;SDS011;7950;42.744;23.174;2022-08-04T10:30:39;2.70;;;2.50;;
15699;SDS011;7950;42.744;23.174;2022-08-04T10:33:18;2.63;;;2.42;;
15699;SDS011;7950;42.744;23.174;2022-08-04T10:35:53;3.38;;;2.92;;
15699;SDS011;7950;42.744;23.174;2022-08-04T10:38:32;3.42;;;3.00;;
15699;SDS011;7950;42.744;23.174;2022-08-04T10:41:08;2.50;;;2.30;;
15699;SDS011;7950;42.744;23.174;2022-08-04T10:43:48;3.53;;;2.60;;
15699;SDS011;7950;42.744;23.174;2022-08-04T10:46:34;2.70;;;2.50;;
15699;SDS011;7950;42.744;23.174;2022-08-04T10:49:13;2.40;;;2.30;;
15699;SDS011;7950;42.744;23.174;2022-08-04T10:51:50;2.63;;;2.42;;
15699;SDS011;7950;42.744;23.174;2022-08-04T10:54:26;2.88;;;2.67;;
15699;SDS011;7950;42.744;23.174;2022-08-04T10:57:12;4.63;;;2.88;;
15699;SDS011;7950;42.744;23.174;2022-08-04T10:59:57;3.00;;;2.65;;
15699;SDS011;7950;42.744;23.174;2022-08-04T11:02:36;3.28;;;2.60;;
15699;SDS011;7950;42.744;23.174;2022-08-04T11:05:14;3.00;;;2.70;;
15699;SDS011;7950;42.744;23.174;2022-08-04T11:07:55;3.22;;;2.95;;
15699;SDS011;7950;42.744;23.174;2022-08-04T11:10:34;4.03;;;2.60;;
15699;SDS011;7950;42.744;23.174;2022-08-04T11:13:15;3.08;;;2.78;;
15699;SDS011;7950;42.744;23.174;2022-08-04T11:15:56;2.58;;;2.38;;
15699;SDS011;7950;42.744;23.174;2022-08-04T11:18:34;2.78;;;2.58;;
15699;SDS011;7950;42.744;23.174;2022-08-04T11:21:17;2.50;;;2.40;;
15699;SDS011;7950;42.744;23.174;2022-08-04T11:23:53;4.25;;;2.63;;
15699;SDS011;7950;42.744;23.174;2022-08-04T11:26:32;3.22;;;2.90;;
15699;SDS011;7950;42.744;23.174;2022-08-04T11:29:14;2.85;;;2.60;;
15699;SDS011;7950;42.744;23.174;2022-08-04T11:31:51;4.30;;;3.00;;
15699;SDS011;7950;42.744;23.174;2022-08-04T11:34:26;3.10;;;2.75;;
15699;SDS011;7950;42.744;23.174;2022-08-04T11:39:51;3.20;;;2.67;;
15699;SDS011;7950;42.744;23.174;2022-08-04T11:42:32;3.00;;;2.70;;
15699;SDS011;7950;42.744;23.174;2022-08-04T11:45:06;3.10;;;2.80;;
15699;SDS011;7950;42.744;23.174;2022-08-04T11:47:45;4.43;;;2.65;;
15699;SDS011;7950;42.744;23.174;2022-08-04T11:50:27;3.10;;;2.90;;
15699;SDS011;7950;42.744;23.174;2022-08-04T11:53:03;5.05;;;2.97;;
15699;SDS011;7950;42.744;23.174;2022-08-04T11:55:34;4.00;;;3.20;;
15699;SDS011;7950;42.744;23.174;2022-08-04T11:58:25;4.75;;;2.85;;
15699;SDS011;7950;42.744;23.174;2022-08-04T12:01:00;3.58;;;3.05;;
15699;SDS011;7950;42.744;23.174;2022-08-04T12:03:53;6.75;;;3.30;;
15699;SDS011;7950;42.744;23.174;2022-08-04T12:06:36;2.95;;;2.75;;
15699;SDS011;7950;42.744;23.174;2022-08-04T12:09:27;3.53;;;2.88;;
15699;SDS011;7950;42.744;23.174;2022-08-04T12:12:14;3.30;;;3.00;;
15699;SDS011;7950;42.744;23.174;2022-08-04T12:14:54;11.43;;;3.05;;
15699;SDS011;7950;42.744;23.174;2022-08-04T12:17:42;4.70;;;2.95;;
15699;SDS011;7950;42.744;23.174;2022-08-04T12:20:23;4.88;;;3.60;;
15699;SDS011;7950;42.744;23.174;2022-08-04T12:22:59;4.70;;;2.75;;
15699;SDS011;7950;42.744;23.174;2022-08-04T12:25:33;6.10;;;3.30;;
15699;SDS011;7950;42.744;23.174;2022-08-04T12:28:11;3.78;;;3.10;;
15699;SDS011;7950;42.744;23.174;2022-08-04T12:30:53;8.40;;;3.08;;
15699;SDS011;7950;42.744;23.174;2022-08-04T12:33:37;3.35;;;3.05;;
15699;SDS011;7950;42.744;23.174;2022-08-04T12:36:33;3.47;;;2.80;;
15699;SDS011;7950;42.744;23.174;2022-08-04T12:39:10;6.25;;;2.92;;
15699;SDS011;7950;42.744;23.174;2022-08-04T12:41:47;3.25;;;2.95;;
15699;SDS011;7950;42.744;23.174;2022-08-04T12:44:30;3.05;;;2.85;;
15699;SDS011;7950;42.744;23.174;2022-08-04T12:47:04;3.00;;;2.80;;
15699;SDS011;7950;42.744;23.174;2022-08-04T12:49:58;3.10;;;2.80;;
15699;SDS011;7950;42.744;23.174;2022-08-04T12:52:32;2.85;;;2.60;;
15699;SDS011;7950;42.744;23.174;2022-08-04T12:55:29;3.10;;;2.80;;
15699;SDS011;7950;42.744;23.174;2022-08-04T12:58:03;3.30;;;3.00;;
15699;SDS011;7950;42.744;23.174;2022-08-04T13:04:17;3.25;;;2.60;;
15699;SDS011;7950;42.744;23.174;2022-08-04T13:06:56;3.25;;;2.95;;
15699;SDS011;7950;42.744;23.174;2022-08-04T13:09:43;3.15;;;2.92;;
15699;SDS011;7950;42.744;23.174;2022-08-04T13:12:14;3.97;;;3.22;;
15699;SDS011;7950;42.744;23.174;2022-08-04T13:14:57;27.00;;;6.25;;
15699;SDS011;7950;42.744;23.174;2022-08-04T13:17:45;24.73;;;5.07;;
15699;SDS011;7950;42.744;23.174;2022-08-04T13:20:23;6.22;;;3.53;;
15699;SDS011;7950;42.744;23.174;2022-08-04T13:22:58;5.50;;;3.20;;
15699;SDS011;7950;42.744;23.174;2022-08-04T13:25:40;4.95;;;3.30;;
15699;SDS011;7950;42.744;23.174;2022-08-04T13:28:57;11.32;;;4.10;;
15699;SDS011;7950;42.744;23.174;2022-08-04T13:31:42;4.32;;;3.38;;
15699;SDS011;7950;42.744;23.174;2022-08-04T13:34:18;4.32;;;3.40;;
15699;SDS011;7950;42.744;23.174;2022-08-04T13:36:48;3.47;;;3.17;;
15699;SDS011;7950;42.744;23.174;2022-08-04T13:39:21;3.45;;;3.15;;
15699;SDS011;7950;42.744;23.174;2022-08-04T13:41:54;3.65;;;3.33;;
15699;SDS011;7950;42.744;23.174;2022-08-04T13:44:27;3.47;;;3.28;;
15699;SDS011;7950;42.744;23.174;2022-08-04T13:47:02;3.53;;;3.20;;
15699;SDS011;7950;42.744;23.174;2022-08-04T13:52:40;3.55;;;3.22;;
15699;SDS011;7950;42.744;23.174;2022-08-04T13:55:18;3.72;;;3.15;;
15699;SDS011;7950;42.744;23.174;2022-08-04T13:57:54;3.60;;;3.30;;
15699;SDS011;7950;42.744;23.174;2022-08-04T14:00:41;3.50;;;3.20;;
15699;SDS011;7950;42.744;23.174;2022-08-04T14:03:21;2.95;;;2.75;;
15699;SDS011;7950;42.744;23.174;2022-08-04T14:09:09;3.95;;;2.80;;
15699;SDS011;7950;42.744;23.174;2022-08-04T14:11:43;3.60;;;3.30;;
15699;SDS011;7950;42.744;23.174;2022-08-04T14:14:36;3.85;;;3.00;;
15699;SDS011;7950;42.744;23.174;2022-08-04T14:17:14;3.05;;;2.78;;
15699;SDS011;7950;42.744;23.174;2022-08-04T14:19:50;3.47;;;3.08;;
15699;SDS011;7950;42.744;23.174;2022-08-04T14:22:28;3.92;;;3.15;;
15699;SDS011;7950;42.744;23.174;2022-08-04T14:25:01;3.85;;;3.40;;
15699;SDS011;7950;42.744;23.174;2022-08-04T14:27:45;3.20;;;3.00;;
15699;SDS011;7950;42.744;23.174;2022-08-04T14:30:25;13.77;;;3.97;;
15699;SDS011;7950;42.744;23.174;2022-08-04T14:32:58;6.93;;;3.10;;
15699;SDS011;7950;42.744;23.174;2022-08-04T14:35:56;5.13;;;3.50;;
15699;SDS011;7950;42.744;23.174;2022-08-04T14:38:43;3.85;;;3.25;;
15699;SDS011;7950;42.744;23.174;2022-08-04T14:41:22;3.20;;;2.90;;
15699;SDS011;7950;42.744;23.174;2022-08-04T14:43:54;3.60;;;3.30;;
15699;SDS011;7950;42.744;23.174;2022-08-04T14:46:29;3.78;;;3.25;;
15699;SDS011;7950;42.744;23.174;2022-08-04T14:49:06;3.38;;;3.17;;
15699;SDS011;7950;42.744;23.174;2022-08-04T14:51:38;3.83;;;3.40;;
15699;SDS011;7950;42.744;23.174;2022-08-04T14:54:10;3.30;;;3.00;;
15699;SDS011;7950;42.744;23.174;2022-08-04T14:56:50;3.70;;;3.50;;
15699;SDS011;7950;42.744;23.174;2022-08-04T14:59:21;3.55;;;3.25;;
15699;SDS011;7950;42.744;23.174;2022-08-04T15:01:53;3.83;;;3.40;;
15699;SDS011;7950;42.744;23.174;2022-08-04T15:04:26;3.92;;;3.63;;
15699;SDS011;7950;42.744;23.174;2022-08-04T15:09:51;3.58;;;3.22;;
15699;SDS011;7950;42.744;23.174;2022-08-04T15:12:20;4.93;;;3.72;;
15699;SDS011;7950;42.744;23.174;2022-08-04T15:14:50;4.60;;;3.53;;
15699;SDS011;7950;42.744;23.174;2022-08-04T15:17:20;3.78;;;3.22;;
15699;SDS011;7950;42.744;23.174;2022-08-04T15:19:55;5.53;;;3.45;;
15699;SDS011;7950;42.744;23.174;2022-08-04T15:22:24;3.40;;;3.10;;
15699;SDS011;7950;42.744;23.174;2022-08-04T15:24:54;4.40;;;3.00;;
15699;SDS011;7950;42.744;23.174;2022-08-04T15:27:23;3.20;;;2.90;;
15699;SDS011;7950;42.744;23.174;2022-08-04T15:30:03;4.25;;;3.40;;
15699;SDS011;7950;42.744;23.174;2022-08-04T15:35:31;6.32;;;3.38;;
15699;SDS011;7950;42.744;23.174;2022-08-04T15:38:05;4.30;;;3.20;;
15699;SDS011;7950;42.744;23.174;2022-08-04T15:40:44;3.50;;;3.20;;
15699;SDS011;7950;42.744;23.174;2022-08-04T15:43:24;3.30;;;3.10;;
15699;SDS011;7950;42.744;23.174;2022-08-04T15:46:24;3.65;;;3.30;;
15699;SDS011;7950;42.744;23.174;2022-08-04T15:49:37;3.88;;;3.42;;
15699;SDS011;7950;42.744;23.174;2022-08-04T15:52:07;3.28;;;3.08;;
15699;SDS011;7950;42.744;23.174;2022-08-04T15:54:38;3.00;;;2.80;;
15699;SDS011;7950;42.744;23.174;2022-08-04T15:57:17;3.40;;;3.10;;
15699;SDS011;7950;42.744;23.174;2022-08-04T16:03:45;3.97;;;3.20;;
15699;SDS011;7950;42.744;23.174;2022-08-04T16:06:42;5.18;;;3.35;;
15699;SDS011;7950;42.744;23.174;2022-08-04T16:09:21;4.13;;;3.17;;
15699;SDS011;7950;42.744;23.174;2022-08-04T16:15:37;3.30;;;3.10;;
15699;SDS011;7950;42.744;23.174;2022-08-04T16:18:08;3.13;;;2.90;;
15699;SDS011;7950;42.744;23.174;2022-08-04T16:20:53;3.40;;;3.10;;
15699;SDS011;7950;42.744;23.174;2022-08-04T16:23:38;3.60;;;3.30;;
15699;SDS011;7950;42.744;23.174;2022-08-04T16:26:43;3.75;;;3.45;;
15699;SDS011;7950;42.744;23.174;2022-08-04T16:29:23;3.60;;;3.30;;
15699;SDS011;7950;42.744;23.174;2022-08-04T16:32:11;4.45;;;3.53;;
15699;SDS011;7950;42.744;23.174;2022-08-04T16:34:46;4.45;;;3.20;;
15699;SDS011;7950;42.744;23.174;2022-08-04T16:37:23;3.22;;;3.03;;
15699;SDS011;7950;42.744;23.174;2022-08-04T16:43:10;4.57;;;3.15;;
15699;SDS011;7950;42.744;23.174;2022-08-04T16:48:47;4.38;;;3.58;;
15699;SDS011;7950;42.744;23.174;2022-08-04T16:51:33;4.88;;;3.83;;
15699;SDS011;7950;42.744;23.174;2022-08-04T16:54:02;3.75;;;3.45;;
15699;SDS011;7950;42.744;23.174;2022-08-04T16:56:32;3.92;;;3.60;;
15699;SDS011;7950;42.744;23.174;2022-08-04T16:59:05;4.35;;;4.05;;
15699;SDS011;7950;42.744;23.174;2022-08-04T17:01:35;4.43;;;4.13;;
15699;SDS011;7950;42.744;23.174;2022-08-04T17:04:06;3.87;;;3.57;;
15699;SDS011;7950;42.744;23.174;2022-08-04T17:06:35;3.60;;;3.27;;
15699;SDS011;7950;42.744;23.174;2022-08-04T17:09:09;3.83;;;3.50;;
15699;SDS011;7950;42.744;23.174;2022-08-04T17:11:40;4.47;;;4.03;;
15699;SDS011;7950;42.744;23.174;2022-08-04T17:17:04;3.90;;;3.60;;
15699;SDS011;7950;42.744;23.174;2022-08-04T17:19:35;8.73;;;4.23;;
15699;SDS011;7950;42.744;23.174;2022-08-04T17:22:04;4.07;;;3.67;;
15699;SDS011;7950;42.744;23.174;2022-08-04T17:24:37;4.07;;;3.63;;
15699;SDS011;7950;42.744;23.174;2022-08-04T17:27:06;4.80;;;4.00;;
15699;SDS011;7950;42.744;23.174;2022-08-04T17:29:57;4.70;;;3.70;;
15699;SDS011;7950;42.744;23.174;2022-08-04T17:32:26;10.30;;;4.47;;
15699;SDS011;7950;42.744;23.174;2022-08-04T17:34:58;4.10;;;3.80;;
15699;SDS011;7950;42.744;23.174;2022-08-04T17:37:29;4.40;;;4.10;;
15699;SDS011;7950;42.744;23.174;2022-08-04T17:40:07;7.27;;;4.50;;
15699;SDS011;7950;42.744;23.174;2022-08-04T17:42:38;4.43;;;4.13;;
15699;SDS011;7950;42.744;23.174;2022-08-04T17:45:11;4.70;;;4.30;;
15699;SDS011;7950;42.744;23.174;2022-08-04T17:48:05;4.90;;;4.23;;
15699;SDS011;7950;42.744;23.174;2022-08-04T17:50:51;4.87;;;4.43;;
15699;SDS011;7950;42.744;23.174;2022-08-04T17:53:30;5.60;;;4.07;;
15699;SDS011;7950;42.744;23.174;2022-08-04T17:56:26;5.80;;;3.77;;
15699;SDS011;7950;42.744;23.174;2022-08-04T17:59:11;4.27;;;3.83;;
15699;SDS011;7950;42.744;23.174;2022-08-04T18:02:03;4.60;;;4.20;;
15699;SDS011;7950;42.744;23.174;2022-08-04T18:04:35;4.37;;;3.97;;
15699;SDS011;7950;42.744;23.174;2022-08-04T18:07:34;4.80;;;4.40;;
15699;SDS011;7950;42.744;23.174;2022-08-04T18:10:33;6.07;;;4.23;;
15699;SDS011;7950;42.744;23.174;2022-08-04T18:13:21;5.27;;;4.47;;